Hovedside
METAR-TAF:

METAR-TAF

Lufthavner :

Pembrey, Wales

breddegrad: 51-43N, lengdegrad: 004-22W, høyde over havet: 3 m

Gjeldene værobservasjon

Denne rapporten ble laget for 38 minutter siden, klokken 22:50 UTC
Vind 21 kt fra Vest
Temperatur 14°C
Luftfuktighet 82%
Trykk 998 hPa
Sikt: 9000 m

METAR: EGOP 152250Z AUTO 26021KT 9000 // OVC011/// 14/11 Q0998

Tid: 00:28 (23:28 UTC)


TAF: fraværende

Værobservasjoner og værvarsel for over 4000 flyplasser (METAR- og TAF-rapporter).

Tilgjengelige stasjoner er representert av de røde og gule prikkene på kartet.

Hold musepekeren over prikken for å se navnet på stasjonen.

Klikk så for å se værobservasjoner og -varsler.

For å forandre kartet kan du klikke på den grønne knappen med svart kryss for å zoome inn, på den grønne knappen med strek for å zoome ut, eller på de grønne pilene for å se tilstøtende kart.


METAR-TAF: